createdAt,value
2022-08-31T00:08:14.389Z,18.99
2022-08-31T00:11:55.929Z,18.90
2022-08-31T00:15:13.806Z,18.87
2022-08-31T00:44:56.156Z,18.80
2022-08-31T00:48:36.490Z,18.73
2022-08-31T00:52:33.202Z,18.73
2022-08-31T00:56:23.158Z,18.74
2022-08-31T00:59:51.973Z,18.75
2022-08-31T01:03:45.106Z,18.75
2022-08-31T01:07:27.420Z,18.73
2022-08-31T01:52:14.103Z,18.22
2022-08-31T01:56:04.912Z,18.10
2022-08-31T01:59:57.417Z,18.04
2022-08-31T02:23:30.665Z,17.83
2022-08-31T02:27:23.329Z,17.79
2022-08-31T02:31:18.608Z,17.85
2022-08-31T02:34:54.147Z,17.89
2022-08-31T02:38:47.016Z,17.92
2022-08-31T03:01:28.511Z,17.96
2022-08-31T03:05:11.924Z,17.96
2022-08-31T03:09:03.619Z,17.95
2022-08-31T03:12:56.162Z,17.96
2022-08-31T03:16:39.689Z,17.96
2022-08-31T03:35:49.454Z,18.01
2022-08-31T03:39:40.770Z,18.00
2022-08-31T03:43:31.966Z,17.99
2022-08-31T03:47:17.903Z,17.99
2022-08-31T04:14:01.750Z,17.84
2022-08-31T04:18:02.567Z,17.79
2022-08-31T04:37:51.304Z,17.92
2022-08-31T04:41:40.486Z,17.93
2022-08-31T04:45:26.353Z,17.94
2022-08-31T05:08:38.698Z,18.22
2022-08-31T05:12:30.023Z,18.22
2022-08-31T05:35:07.428Z,18.59
2022-08-31T05:39:01.058Z,18.58
2022-08-31T05:42:37.382Z,18.59
2022-08-31T05:46:29.011Z,18.62
2022-08-31T06:09:23.061Z,19.14
2022-08-31T06:12:32.858Z,19.20
2022-08-31T06:15:58.454Z,19.28
2022-08-31T06:19:07.777Z,19.31
2022-08-31T06:22:08.312Z,19.31
2022-08-31T06:25:59.776Z,19.33
2022-08-31T06:29:53.569Z,19.37
2022-08-31T06:33:05.101Z,19.44
2022-08-31T06:36:35.144Z,19.54
2022-08-31T06:40:30.444Z,19.60
2022-08-31T06:44:06.209Z,19.64
2022-08-31T06:54:33.077Z,19.93
2022-08-31T07:05:30.459Z,20.40
2022-08-31T07:08:43.516Z,20.63
2022-08-31T07:19:07.936Z,21.30
2022-08-31T07:21:59.152Z,21.45
2022-08-31T07:28:44.271Z,21.69
2022-08-31T07:31:59.638Z,21.78
2022-08-31T07:35:00.947Z,21.90
2022-08-31T07:38:02.537Z,22.00
2022-08-31T07:41:14.411Z,22.15
2022-08-31T07:44:21.196Z,22.31
2022-08-31T07:47:12.079Z,22.42
2022-08-31T07:50:16.549Z,22.52
2022-08-31T07:53:17.094Z,22.67
2022-08-31T07:56:56.945Z,22.95
2022-08-31T08:00:05.559Z,23.25
2022-08-31T08:02:52.978Z,23.32
2022-08-31T08:05:45.125Z,23.34
2022-08-31T08:09:12.690Z,23.31
2022-08-31T08:12:22.515Z,23.33
2022-08-31T08:15:36.453Z,23.29
2022-08-31T08:19:13.122Z,23.30
2022-08-31T08:21:55.603Z,23.33
2022-08-31T08:24:38.640Z,23.37
2022-08-31T08:28:39.725Z,23.43
2022-08-31T08:31:29.380Z,23.50
2022-08-31T08:34:19.560Z,23.55
2022-08-31T08:37:11.547Z,23.62
2022-08-31T08:40:05.044Z,23.69
2022-08-31T08:43:00.348Z,23.65
2022-08-31T08:45:47.834Z,23.74
2022-08-31T08:48:29.737Z,24.02
2022-08-31T08:51:28.557Z,24.19
2022-08-31T08:54:23.822Z,24.57
2022-08-31T08:57:20.322Z,24.92
2022-08-31T09:00:06.938Z,25.20
2022-08-31T09:02:48.672Z,25.60
2022-08-31T09:05:43.834Z,25.65
2022-08-31T09:09:09.047Z,25.85
2022-08-31T09:12:05.614Z,26.17
2022-08-31T09:14:51.602Z,26.41
2022-08-31T09:17:35.868Z,26.66
2022-08-31T09:20:28.741Z,26.71
2022-08-31T09:23:01.839Z,26.70
2022-08-31T09:25:52.707Z,26.71
2022-08-31T09:29:17.497Z,26.58
2022-08-31T09:31:49.899Z,26.79
2022-08-31T09:34:48.597Z,26.97
2022-08-31T09:38:10.621Z,27.05
2022-08-31T09:40:54.048Z,26.96
2022-08-31T09:43:45.297Z,26.91
2022-08-31T09:46:36.520Z,27.08
2022-08-31T09:49:39.606Z,27.10
2022-08-31T09:52:43.009Z,27.45
2022-08-31T09:55:25.682Z,27.85
2022-08-31T09:58:27.220Z,28.15
2022-08-31T10:01:36.374Z,28.24
2022-08-31T10:04:38.529Z,27.97
2022-08-31T10:07:49.409Z,27.90
2022-08-31T10:10:36.878Z,27.62
2022-08-31T10:13:58.558Z,27.52
2022-08-31T10:17:00.827Z,27.38
2022-08-31T10:20:10.619Z,27.30
2022-08-31T10:22:57.314Z,27.32
2022-08-31T10:25:43.493Z,27.31
2022-08-31T10:28:52.160Z,27.56
2022-08-31T10:31:43.617Z,28.13
2022-08-31T10:34:54.074Z,28.62
2022-08-31T10:37:53.953Z,29.03
2022-08-31T10:41:04.164Z,29.27
2022-08-31T10:43:46.359Z,29.41
2022-08-31T10:46:17.270Z,29.53
2022-08-31T10:48:58.305Z,29.39
2022-08-31T10:51:38.769Z,29.46
2022-08-31T10:54:27.956Z,29.75
2022-08-31T10:57:22.355Z,30.19
2022-08-31T11:00:38.368Z,30.59
2022-08-31T11:03:23.050Z,30.81
2022-08-31T11:06:09.722Z,30.93
2022-08-31T11:09:04.505Z,30.60
2022-08-31T11:11:46.152Z,30.20
2022-08-31T11:14:33.737Z,30.29
2022-08-31T11:17:29.307Z,30.73
2022-08-31T11:20:22.642Z,31.09
2022-08-31T11:23:06.056Z,31.17
2022-08-31T11:26:19.279Z,31.40
2022-08-31T11:28:56.435Z,31.52
2022-08-31T11:31:30.767Z,31.78
2022-08-31T11:34:17.403Z,31.99
2022-08-31T11:36:51.552Z,32.04
2022-08-31T11:39:37.216Z,32.10
2022-08-31T11:42:14.464Z,32.07
2022-08-31T11:44:45.000Z,31.95
2022-08-31T11:47:30.525Z,31.92
2022-08-31T11:50:06.758Z,31.52
2022-08-31T11:52:41.410Z,31.04
2022-08-31T11:55:24.513Z,30.71
2022-08-31T11:58:20.089Z,30.28
2022-08-31T12:01:06.951Z,29.90
2022-08-31T12:03:56.123Z,29.48
2022-08-31T12:06:30.035Z,29.17
2022-08-31T12:09:02.936Z,28.96
2022-08-31T12:11:52.317Z,28.72
2022-08-31T12:14:35.794Z,28.57
2022-08-31T12:17:47.188Z,28.67
2022-08-31T12:21:25.116Z,28.76
2022-08-31T12:24:18.902Z,28.87
2022-08-31T12:27:18.245Z,28.91
2022-08-31T12:30:14.277Z,28.90
2022-08-31T12:32:49.996Z,28.71
2022-08-31T12:35:25.594Z,28.64
2022-08-31T12:38:23.010Z,28.62
2022-08-31T12:41:10.356Z,28.70
2022-08-31T12:43:44.778Z,29.05
2022-08-31T12:46:24.474Z,29.44
2022-08-31T12:49:33.787Z,29.78
2022-08-31T12:52:04.563Z,30.19
2022-08-31T12:55:01.181Z,30.56
2022-08-31T12:57:46.479Z,30.76
2022-08-31T13:00:31.082Z,30.66
2022-08-31T13:03:21.992Z,30.77
2022-08-31T13:06:13.933Z,30.64
2022-08-31T13:08:46.283Z,30.45
2022-08-31T13:11:51.424Z,30.34
2022-08-31T13:14:25.464Z,30.16
2022-08-31T13:17:12.504Z,29.99
2022-08-31T13:19:51.049Z,29.96
2022-08-31T13:22:36.099Z,30.12
2022-08-31T13:25:51.046Z,30.34
2022-08-31T13:28:29.316Z,30.59
2022-08-31T13:31:09.543Z,30.48
2022-08-31T13:33:42.977Z,30.33
2022-08-31T13:36:38.526Z,30.11
2022-08-31T13:39:43.994Z,29.88
2022-08-31T13:42:42.011Z,29.81
2022-08-31T13:45:32.626Z,29.92
2022-08-31T13:48:12.923Z,30.01
2022-08-31T13:51:16.832Z,30.05
2022-08-31T13:54:05.778Z,30.20
2022-08-31T13:56:58.965Z,30.24
2022-08-31T14:00:19.943Z,30.24
2022-08-31T14:02:54.366Z,30.15
2022-08-31T14:05:41.465Z,30.09
2022-08-31T14:08:28.077Z,30.19
2022-08-31T14:11:29.902Z,30.13
2022-08-31T14:14:36.543Z,30.22
2022-08-31T14:17:06.894Z,30.39
2022-08-31T14:19:55.975Z,30.38
2022-08-31T14:22:57.466Z,30.26
2022-08-31T14:25:38.397Z,30.19
2022-08-31T14:28:33.844Z,30.13
2022-08-31T14:31:13.162Z,29.96
2022-08-31T14:33:44.354Z,29.86
2022-08-31T14:36:17.681Z,29.73
2022-08-31T14:38:59.556Z,29.54
2022-08-31T14:41:53.412Z,29.27
2022-08-31T14:44:26.227Z,29.16
2022-08-31T14:46:56.798Z,29.16
2022-08-31T14:49:27.613Z,29.12
2022-08-31T14:52:07.043Z,29.17
2022-08-31T14:54:38.022Z,29.36
2022-08-31T14:57:18.758Z,29.42
2022-08-31T15:00:00.159Z,29.27
2022-08-31T15:02:35.878Z,29.07
2022-08-31T15:05:09.596Z,29.07
2022-08-31T15:07:42.940Z,29.21
2022-08-31T15:10:13.357Z,29.30
2022-08-31T15:12:43.512Z,29.45
2022-08-31T15:15:19.365Z,29.52
2022-08-31T15:17:51.950Z,29.62
2022-08-31T15:20:24.098Z,29.73
2022-08-31T15:22:54.270Z,29.73
2022-08-31T15:25:27.164Z,29.67
2022-08-31T15:27:58.426Z,29.48
2022-08-31T15:30:28.910Z,29.18
2022-08-31T15:32:59.967Z,29.06
2022-08-31T15:35:32.167Z,29.02
2022-08-31T15:38:07.109Z,28.94
2022-08-31T15:40:40.286Z,28.91
2022-08-31T15:43:12.821Z,28.93
2022-08-31T15:45:41.868Z,28.89
2022-08-31T15:48:37.023Z,28.85
2022-08-31T15:51:28.564Z,28.68
2022-08-31T15:54:21.114Z,28.50
2022-08-31T15:56:53.553Z,28.33
2022-08-31T15:59:23.923Z,28.01
2022-08-31T16:01:54.052Z,27.55
2022-08-31T16:04:24.493Z,27.26
2022-08-31T16:06:55.848Z,26.96
2022-08-31T16:09:26.188Z,26.80
2022-08-31T16:11:55.114Z,26.68
2022-08-31T16:14:41.679Z,26.36
2022-08-31T16:17:19.351Z,25.74
2022-08-31T16:19:49.421Z,25.25
2022-08-31T16:22:21.266Z,24.97
2022-08-31T16:24:53.960Z,24.74
2022-08-31T16:27:26.910Z,24.42
2022-08-31T16:30:01.264Z,24.05
2022-08-31T16:32:45.739Z,23.79
2022-08-31T16:35:45.215Z,23.51
2022-08-31T16:38:18.390Z,23.24
2022-08-31T16:41:19.292Z,23.05
2022-08-31T16:44:20.530Z,22.84
2022-08-31T16:47:02.313Z,22.67
2022-08-31T16:49:46.151Z,22.57
2022-08-31T16:52:46.355Z,22.48
2022-08-31T16:55:31.982Z,22.40
2022-08-31T16:58:09.123Z,22.35
2022-08-31T17:01:13.102Z,22.36
2022-08-31T17:03:59.275Z,22.38
2022-08-31T17:07:14.777Z,22.43
2022-08-31T17:10:07.490Z,22.45
2022-08-31T17:12:55.271Z,22.44
2022-08-31T17:15:45.641Z,22.37
2022-08-31T17:18:37.530Z,22.24
2022-08-31T17:22:13.910Z,22.11
2022-08-31T17:25:08.364Z,21.84
2022-08-31T17:28:07.658Z,21.64
2022-08-31T17:31:13.206Z,21.49
2022-08-31T17:33:49.607Z,21.37
2022-08-31T17:36:44.436Z,21.40
2022-08-31T17:39:53.503Z,21.45
2022-08-31T17:42:50.673Z,21.50
2022-08-31T17:46:07.584Z,21.46
2022-08-31T17:49:28.214Z,21.34
2022-08-31T17:52:40.046Z,21.05
2022-08-31T17:55:32.827Z,21.02
2022-08-31T17:59:33.234Z,21.13
2022-08-31T18:03:24.861Z,21.12
2022-08-31T18:06:59.677Z,21.17
2022-08-31T18:10:54.260Z,21.21
2022-08-31T18:14:19.767Z,21.24
2022-08-31T18:17:46.623Z,21.27
2022-08-31T18:40:23.618Z,21.34
2022-08-31T18:44:13.196Z,21.13
2022-08-31T18:51:36.961Z,21.05
2022-08-31T19:14:07.325Z,20.75
2022-08-31T19:18:01.055Z,20.54
2022-08-31T19:33:11.233Z,19.98
2022-08-31T19:36:55.377Z,19.87
2022-08-31T19:40:05.686Z,19.85
2022-08-31T19:43:54.878Z,19.84
2022-08-31T19:47:29.908Z,19.77
2022-08-31T19:50:15.839Z,19.69
2022-08-31T19:53:50.780Z,19.62
2022-08-31T19:56:58.397Z,19.55
2022-08-31T20:00:30.653Z,19.51
2022-08-31T20:04:01.829Z,19.46
2022-08-31T20:40:03.533Z,18.65
2022-08-31T20:43:21.841Z,18.58
2022-08-31T20:46:58.417Z,18.54
2022-08-31T20:50:26.665Z,18.49
2022-08-31T20:54:02.910Z,18.39
2022-08-31T20:57:18.149Z,18.28
2022-08-31T21:00:42.190Z,18.24
2022-08-31T21:04:06.474Z,18.24
2022-08-31T21:07:34.000Z,18.22
2022-08-31T21:11:32.693Z,18.20
2022-08-31T21:14:37.956Z,18.13
2022-08-31T21:58:46.142Z,17.62
2022-08-31T22:02:37.704Z,17.56
2022-08-31T22:06:31.173Z,17.48
2022-08-31T22:21:49.825Z,17.18
2022-08-31T22:25:22.867Z,17.03
2022-08-31T22:29:06.316Z,16.92
2022-08-31T22:44:37.340Z,16.73
2022-08-31T22:48:29.082Z,16.67
2022-08-31T22:52:21.066Z,16.63
2022-08-31T22:56:12.449Z,16.62
2022-08-31T23:15:47.496Z,16.41
2022-08-31T23:19:44.839Z,16.36
2022-08-31T23:23:36.624Z,16.32
2022-08-31T23:27:29.566Z,16.23
2022-08-31T23:46:45.386Z,16.24
2022-08-31T23:50:23.315Z,16.17
2022-08-31T23:54:17.728Z,16.16
2022-08-31T23:58:03.475Z,16.11
